Time,TemperatureF,DewpointF,PressureIn,WindDirection,WindDirectionDegrees,WindSpeedMPH,WindSpeedGustMPH,Humidity,HourlyPrecipIn,Conditions,Clouds,dailyrainin,SoftwareType,DateUTC
2013-01-10 00:10:00,41.4,32.0,30.41,North,10,3.0,12.0,70,0.00,,,0.00,weatherlink.com 1.10,2013-01-10 05:10:00,
2013-01-10 00:25:00,41.6,32.0,30.43,South,186,6.0,12.0,68,0.00,,,0.00,weatherlink.com 1.10,2013-01-10 05:25:00,
2013-01-10 00:55:00,41.2,30.0,30.43,NNW,337,1.0,9.0,65,0.00,,,0.00,weatherlink.com 1.10,2013-01-10 05:55:00,
2013-01-10 01:10:00,40.6,29.0,30.43,SSW,198,7.0,8.0,64,0.00,,,0.00,weatherlink.com 1.10,2013-01-10 06:10:00,
2013-01-10 01:25:00,40.8,29.0,30.44,East,101,0.0,8.0,63,0.00,,,0.00,weatherlink.com 1.10,2013-01-10 06:25:00,
2013-01-10 01:40:00,40.8,29.0,30.45,South,182,6.0,11.0,62,0.00,,,0.00,weatherlink.com 1.10,2013-01-10 06:40:00,
2013-01-10 01:55:00,41.3,26.0,30.47,South,182,3.0,15.0,55,0.00,,,0.00,weatherlink.com 1.10,2013-01-10 06:55:00,
2013-01-10 02:10:00,41.5,26.0,30.48,SSW,194,1.0,12.0,54,0.00,,,0.00,weatherlink.com 1.10,2013-01-10 07:10:00,
2013-01-10 02:25:00,41.1,25.0,30.49,SW,215,3.0,18.0,54,0.00,,,0.00,weatherlink.com 1.10,2013-01-10 07:25:00,
2013-01-10 02:40:00,40.6,26.0,30.50,WSW,257,2.0,8.0,56,0.00,,,0.00,weatherlink.com 1.10,2013-01-10 07:40:00,
2013-01-10 02:55:00,40.4,25.0,30.50,SSW,192,7.0,9.0,55,0.00,,,0.00,weatherlink.com 1.10,2013-01-10 07:55:00,
2013-01-10 03:10:00,40.1,25.0,30.50,West,276,5.0,10.0,56,0.00,,,0.00,weatherlink.com 1.10,2013-01-10 08:10:00,
2013-01-10 03:25:00,40.1,26.0,30.50,South,169,9.0,14.0,57,0.00,,,0.00,weatherlink.com 1.10,2013-01-10 08:25:00,
2013-01-10 03:40:00,39.8,26.0,30.50,South,189,4.0,13.0,58,0.00,,,0.00,weatherlink.com 1.10,2013-01-10 08:40:00,
2013-01-10 03:55:00,39.5,27.0,30.51,NW,307,2.0,5.0,61,0.00,,,0.00,weatherlink.com 1.10,2013-01-10 08:55:00,
2013-01-10 04:10:00,39.3,26.0,30.52,SSW,195,4.0,7.0,59,0.00,,,0.00,weatherlink.com 1.10,2013-01-10 09:10:00,
2013-01-10 04:25:00,39.0,26.0,30.53,SW,234,3.0,5.0,60,0.00,,,0.00,weatherlink.com 1.10,2013-01-10 09:25:00,
2013-01-10 04:40:00,38.6,26.0,30.53,WSW,238,1.0,7.0,61,0.00,,,0.00,weatherlink.com 1.10,2013-01-10 09:40:00,
2013-01-10 04:55:00,38.8,26.0,30.53,WSW,250,4.0,9.0,61,0.00,,,0.00,weatherlink.com 1.10,2013-01-10 09:55:00,
2013-01-10 05:10:00,38.9,26.0,30.54,South,173,4.0,8.0,61,0.00,,,0.00,weatherlink.com 1.10,2013-01-10 10:10:00,
2013-01-10 05:25:00,39.0,26.0,30.55,SW,231,5.0,14.0,60,0.00,,,0.00,weatherlink.com 1.10,2013-01-10 10:25:00,
2013-01-10 05:40:00,38.8,26.0,30.57,SSW,207,7.0,10.0,61,0.00,,,0.00,weatherlink.com 1.10,2013-01-10 10:40:00,
2013-01-10 05:55:00,38.5,26.0,30.57,WNW,286,4.0,9.0,62,0.00,,,0.00,weatherlink.com 1.10,2013-01-10 10:55:00,
2013-01-10 06:10:00,37.9,26.0,30.58,South,174,2.0,4.0,63,0.00,,,0.00,weatherlink.com 1.10,2013-01-10 11:10:00,
2013-01-10 06:25:00,37.9,26.0,30.60,East,91,2.0,5.0,63,0.00,,,0.00,weatherlink.com 1.10,2013-01-10 11:25:00,
2013-01-10 06:40:00,37.1,27.0,30.61,ESE,113,1.0,2.0,66,0.00,,,0.00,weatherlink.com 1.10,2013-01-10 11:40:00,
2013-01-10 06:55:00,35.2,26.0,30.61,South,184,2.0,4.0,70,0.00,,,0.00,weatherlink.com 1.10,2013-01-10 11:55:00,
2013-01-10 07:10:00,36.3,26.0,30.61,WSW,240,4.0,10.0,66,0.00,,,0.00,weatherlink.com 1.10,2013-01-10 12:10:00,
2013-01-10 07:25:00,36.8,26.0,30.63,South,190,0.0,6.0,64,0.00,,,0.00,weatherlink.com 1.10,2013-01-10 12:25:00,
2013-01-10 07:40:00,36.6,26.0,30.64,WSW,240,1.0,6.0,66,0.00,,,0.00,weatherlink.com 1.10,2013-01-10 12:40:00,
2013-01-10 07:55:00,36.4,26.0,30.65,WSW,251,4.0,7.0,65,0.00,,,0.00,weatherlink.com 1.10,2013-01-10 12:55:00,
2013-01-10 08:10:00,36.7,25.0,30.66,SSW,195,0.0,8.0,63,0.00,,,0.00,weatherlink.com 1.10,2013-01-10 13:10:00,
2013-01-10 08:25:00,36.8,25.0,30.68,SW,219,1.0,4.0,62,0.00,,,0.00,weatherlink.com 1.10,2013-01-10 13:25:00,
2013-01-10 08:40:00,36.5,25.0,30.68,SSW,211,2.0,5.0,64,0.00,,,0.00,weatherlink.com 1.10,2013-01-10 13:40:00,
2013-01-10 08:55:00,37.0,25.0,30.69,SSW,199,0.0,7.0,61,0.00,,,0.00,weatherlink.com 1.10,2013-01-10 13:55:00,
2013-01-10 09:11:00,37.4,24.0,30.70,South,177,2.0,6.0,60,0.00,,,0.00,weatherlink.com 1.10,2013-01-10 14:11:00,
2013-01-10 09:26:00,38.5,24.0,30.70,West,261,3.0,8.0,56,0.00,,,0.00,weatherlink.com 1.10,2013-01-10 14:26:00,
2013-01-10 09:41:00,39.6,24.0,30.71,South,181,4.0,7.0,54,0.00,,,0.00,weatherlink.com 1.10,2013-01-10 14:41:00,
2013-01-10 09:56:00,40.7,24.0,30.71,East,97,5.0,6.0,52,0.00,,,0.00,weatherlink.com 1.10,2013-01-10 14:56:00,
2013-01-10 10:11:00,40.5,25.0,30.71,NW,317,2.0,5.0,54,0.00,,,0.00,weatherlink.com 1.10,2013-01-10 15:11:00,
2013-01-10 10:26:00,41.5,24.0,30.72,SSW,205,6.0,7.0,51,0.00,,,0.00,weatherlink.com 1.10,2013-01-10 15:26:00,
2013-01-10 10:41:00,42.2,24.0,30.71,SW,215,2.0,12.0,49,0.00,,,0.00,weatherlink.com 1.10,2013-01-10 15:41:00,
2013-01-10 10:56:00,42.7,24.0,30.70,South,190,8.0,13.0,48,0.00,,,0.00,weatherlink.com 1.10,2013-01-10 15:56:00,
2013-01-10 11:11:00,42.8,24.0,30.70,SW,219,3.0,9.0,48,0.00,,,0.00,weatherlink.com 1.10,2013-01-10 16:11:00,
2013-01-10 11:26:00,44.0,25.0,30.70,West,260,6.0,8.0,47,0.00,,,0.00,weatherlink.com 1.10,2013-01-10 16:26:00,
2013-01-10 11:41:00,44.0,24.0,30.68,WNW,286,2.0,10.0,46,0.00,,,0.00,weatherlink.com 1.10,2013-01-10 16:41:00,
2013-01-10 11:56:00,44.5,24.0,30.67,SSW,213,4.0,7.0,44,0.00,,,0.00,weatherlink.com 1.10,2013-01-10 16:56:00,
2013-01-10 12:11:00,44.9,26.0,30.68,SSW,203,6.0,7.0,47,0.00,,,0.00,weatherlink.com 1.10,2013-01-10 17:11:00,
2013-01-10 12:26:00,44.5,25.0,30.66,SSW,192,1.0,8.0,46,0.00,,,0.00,weatherlink.com 1.10,2013-01-10 17:26:00,
2013-01-10 12:41:00,44.6,24.0,30.66,SSW,210,5.0,7.0,45,0.00,,,0.00,weatherlink.com 1.10,2013-01-10 17:41:00,
2013-01-10 12:56:00,44.9,25.0,30.67,SSW,195,6.0,11.0,45,0.00,,,0.00,weatherlink.com 1.10,2013-01-10 17:56:00,
2013-01-10 13:11:00,45.8,23.0,30.66,West,275,5.0,9.0,41,0.00,,,0.00,weatherlink.com 1.10,2013-01-10 18:11:00,
2013-01-10 13:26:00,46.1,23.0,30.66,SW,232,4.0,12.0,41,0.00,,,0.00,weatherlink.com 1.10,2013-01-10 18:26:00,
2013-01-10 13:41:00,47.2,25.0,30.66,SW,231,2.0,4.0,42,0.00,,,0.00,weatherlink.com 1.10,2013-01-10 18:41:00,
2013-01-10 13:56:00,46.6,23.0,30.67,NW,304,2.0,8.0,40,0.00,,,0.00,weatherlink.com 1.10,2013-01-10 18:56:00,
2013-01-10 14:11:00,46.3,24.0,30.66,SSW,208,1.0,7.0,41,0.00,,,0.00,weatherlink.com 1.10,2013-01-10 19:11:00,
2013-01-10 14:26:00,46.9,24.0,30.67,NW,310,2.0,5.0,40,0.00,,,0.00,weatherlink.com 1.10,2013-01-10 19:26:00,
2013-01-10 14:41:00,46.7,25.0,30.67,NE,48,0.0,3.0,42,0.00,,,0.00,weatherlink.com 1.10,2013-01-10 19:41:00,
2013-01-10 14:56:00,45.1,23.0,30.68,West,277,4.0,6.0,42,0.00,,,0.00,weatherlink.com 1.10,2013-01-10 19:56:00,
2013-01-10 15:11:00,44.0,24.0,30.68,SSW,200,2.0,5.0,45,0.00,,,0.00,weatherlink.com 1.10,2013-01-10 20:11:00,
2013-01-10 15:26:00,43.3,24.0,30.69,NW,322,1.0,4.0,46,0.00,,,0.00,weatherlink.com 1.10,2013-01-10 20:26:00,
2013-01-10 15:41:00,43.0,24.0,30.70,WNW,287,1.0,7.0,47,0.00,,,0.00,weatherlink.com 1.10,2013-01-10 20:41:00,
2013-01-10 15:56:00,42.5,23.0,30.70,WNW,287,2.0,3.0,47,0.00,,,0.00,weatherlink.com 1.10,2013-01-10 20:56:00,
2013-01-10 16:11:00,41.6,26.0,30.69,SSW,203,1.0,4.0,54,0.00,,,0.00,weatherlink.com 1.10,2013-01-10 21:11:00,
2013-01-10 16:26:00,40.9,24.0,30.70,SSW,203,0.0,3.0,52,0.00,,,0.00,weatherlink.com 1.10,2013-01-10 21:26:00,
2013-01-10 16:41:00,40.2,25.0,30.70,SSW,203,0.0,2.0,56,0.00,,,0.00,weatherlink.com 1.10,2013-01-10 21:41:00,
2013-01-10 16:56:00,38.8,25.0,30.71,SSW,203,0.0,2.0,58,0.00,,,0.00,weatherlink.com 1.10,2013-01-10 21:56:00,
2013-01-10 17:12:00,38.3,25.0,30.71,SSW,203,0.0,2.0,59,0.00,,,0.00,weatherlink.com 1.10,2013-01-10 22:12:00,
2013-01-10 17:27:00,37.9,25.0,30.72,SSW,203,2.0,2.0,59,0.00,,,0.00,weatherlink.com 1.10,2013-01-10 22:27:00,
2013-01-10 17:42:00,37.6,25.0,30.73,SSW,203,2.0,2.0,60,0.00,,,0.00,weatherlink.com 1.10,2013-01-10 22:42:00,
2013-01-10 17:57:00,36.6,25.0,30.73,SSW,203,0.0,2.0,63,0.00,,,0.00,weatherlink.com 1.10,2013-01-10 22:57:00,
2013-01-10 18:12:00,36.6,25.0,30.73,SSW,203,0.0,2.0,62,0.00,,,0.00,weatherlink.com 1.10,2013-01-10 23:12:00,
2013-01-10 18:27:00,36.2,25.0,30.74,SSW,203,0.0,2.0,64,0.00,,,0.00,weatherlink.com 1.10,2013-01-10 23:27:00,
2013-01-10 18:42:00,36.2,25.0,30.74,SSW,202,0.0,4.0,63,0.00,,,0.00,weatherlink.com 1.10,2013-01-10 23:42:00,
2013-01-10 18:57:00,36.8,25.0,30.73,SSW,202,0.0,4.0,62,0.00,,,0.00,weatherlink.com 1.10,2013-01-10 23:57:00,
2013-01-10 19:12:00,36.7,24.0,30.74,South,184,0.0,2.0,61,0.00,,,0.00,weatherlink.com 1.10,2013-01-11 00:12:00,
2013-01-10 19:27:00,36.2,25.0,30.74,South,184,0.0,2.0,64,0.00,,,0.00,weatherlink.com 1.10,2013-01-11 00:27:00,
2013-01-10 19:42:00,35.1,25.0,30.74,South,182,1.0,2.0,66,0.00,,,0.00,weatherlink.com 1.10,2013-01-11 00:42:00,
2013-01-10 19:57:00,35.2,24.0,30.75,South,182,0.0,1.0,65,0.00,,,0.00,weatherlink.com 1.10,2013-01-11 00:57:00,
2013-01-10 20:12:00,35.1,25.0,30.76,South,182,0.0,1.0,67,0.00,,,0.00,weatherlink.com 1.10,2013-01-11 01:12:00,
2013-01-10 20:27:00,34.4,24.0,30.76,South,182,0.0,1.0,67,0.00,,,0.00,weatherlink.com 1.10,2013-01-11 01:27:00,
2013-01-10 20:42:00,33.8,25.0,30.76,South,182,0.0,1.0,70,0.00,,,0.00,weatherlink.com 1.10,2013-01-11 01:42:00,
2013-01-10 20:57:00,33.4,25.0,30.77,South,182,0.0,0.0,70,0.00,,,0.00,weatherlink.com 1.10,2013-01-11 01:57:00,
2013-01-10 21:12:00,33.1,25.0,30.76,South,182,0.0,1.0,72,0.00,,,0.00,weatherlink.com 1.10,2013-01-11 02:12:00,
2013-01-10 21:27:00,32.7,25.0,30.75,South,182,0.0,1.0,73,0.00,,,0.00,weatherlink.com 1.10,2013-01-11 02:27:00,
2013-01-10 21:42:00,33.1,25.0,30.76,South,182,0.0,2.0,72,0.00,,,0.00,weatherlink.com 1.10,2013-01-11 02:42:00,
2013-01-10 21:57:00,33.1,24.0,30.76,South,182,0.0,0.0,70,0.00,,,0.00,weatherlink.com 1.10,2013-01-11 02:57:00,
2013-01-10 22:12:00,33.4,25.0,30.76,South,182,0.0,2.0,70,0.00,,,0.00,weatherlink.com 1.10,2013-01-11 03:12:00,
2013-01-10 22:27:00,33.0,24.0,30.76,South,182,0.0,0.0,70,0.00,,,0.00,weatherlink.com 1.10,2013-01-11 03:27:00,
2013-01-10 22:42:00,33.1,25.0,30.76,South,182,2.0,3.0,72,0.00,,,0.00,weatherlink.com 1.10,2013-01-11 03:42:00,
2013-01-10 22:57:00,32.9,25.0,30.75,South,182,0.0,4.0,73,0.00,,,0.00,weatherlink.com 1.10,2013-01-11 03:57:00,
2013-01-10 23:12:00,33.3,25.0,30.76,South,182,2.0,3.0,71,0.00,,,0.00,weatherlink.com 1.10,2013-01-11 04:12:00,
2013-01-10 23:27:00,33.9,25.0,30.76,WSW,248,0.0,2.0,69,0.00,,,0.00,weatherlink.com 1.10,2013-01-11 04:27:00,
2013-01-10 23:42:00,34.1,25.0,30.77,WNW,290,2.0,3.0,68,0.00,,,0.00,weatherlink.com 1.10,2013-01-11 04:42:00,
2013-01-10 23:57:00,33.5,25.0,30.77,SW,217,1.0,3.0,71,0.00,,,0.00,weatherlink.com 1.10,2013-01-11 04:57:00,